Time;durP1;ratioP1;P1;durP2;ratioP2;P2;SDS_P1;SDS_P2;PMS_P1;PMS_P2;Temp;Humidity;BMP_temperature;BMP_pressure;BME280_temperature;BME280_humidity;BME280_pressure;Samples;Min_cycle;Max_cycle;Signal;HPM_P1;HPM_P2
2023/07/14 00:00:21;;;;;;;;;;;17.90;99.90;;;;;;5004779;28;19920;-81
2023/07/14 00:02:48;;;;;;;;;;;18.00;99.90;;;;;;5023643;28;20008;-80
2023/07/14 00:05:15;;;;;;;;;;;18.00;99.90;;;;;;5006260;28;20379;-81
2023/07/14 00:07:40;;;;;;;;;;;18.00;99.90;;;;;;5039169;28;20015;-81
2023/07/14 00:10:14;;;;;;;;;;;18.00;99.90;;;;;;5017367;28;19917;-81
2023/07/14 00:12:42;;;;;;;;;;;18.10;99.90;;;;;;5023504;28;20387;-81
2023/07/14 00:15:10;;;;;;;;;;;18.10;99.90;;;;;;5023517;28;19928;-81
2023/07/14 00:17:36;;;;;;;;;;;18.10;99.90;;;;;;5038280;28;19935;-80
2023/07/14 00:20:03;;;;;;;;;;;18.00;99.90;;;;;;5024211;28;19908;-80
2023/07/14 00:22:30;;;;;;;;;;;18.00;99.90;;;;;;5001041;28;19955;-80
2023/07/14 00:24:56;;;;;;;;;;;18.00;99.90;;;;;;5001768;28;20103;-80
2023/07/14 00:27:24;;;;;;;;;;;18.00;99.90;;;;;;5000662;28;20019;-80
2023/07/14 00:29:50;;;;;;;;;;;18.00;99.90;;;;;;5021426;28;19917;-80
2023/07/14 00:32:17;;;;;;;;;;;18.00;99.90;;;;;;5038696;28;19916;-80
2023/07/14 00:34:48;;;;;;;;;;;18.00;99.90;;;;;;5005943;28;19909;-81
2023/07/14 00:37:13;;;;;;;;;;;18.00;99.90;;;;;;5023377;28;19917;-80
2023/07/14 00:39:40;;;;;;;;;;;17.90;99.90;;;;;;5002866;28;19935;-81
2023/07/14 00:42:07;;;;;;;;;;;17.90;99.90;;;;;;5024114;28;19917;-80
2023/07/14 00:44:34;;;;;;;;;;;17.80;99.90;;;;;;5001316;28;19917;-78
2023/07/14 00:47:01;;;;;;;;;;;17.80;99.90;;;;;;5000899;28;19939;-78
2023/07/14 00:49:38;;;;;;;;;;;17.70;99.90;;;;;;5038192;28;19920;-79
2023/07/14 00:52:12;;;;;;;;;;;17.70;99.90;;;;;;5006314;28;19923;-79
2023/07/14 00:54:41;;;;;;;;;;;17.60;99.90;;;;;;5022087;28;19953;-79
2023/07/14 00:57:15;;;;;;;;;;;17.50;99.90;;;;;;5023076;28;19928;-80
2023/07/14 00:59:40;;;;;;;;;;;17.50;99.90;;;;;;5000198;28;20371;-80
2023/07/14 01:02:23;;;;;;;;;;;17.40;99.90;;;;;;5005691;28;19918;-80
2023/07/14 01:04:51;;;;;;;;;;;17.30;99.90;;;;;;5019860;28;19916;-81
2023/07/14 01:07:18;;;;;;;;;;;17.30;99.90;;;;;;4999047;28;20388;-80
2023/07/14 01:09:44;;;;;;;;;;;17.30;99.90;;;;;;5023042;28;19917;-81
2023/07/14 01:12:11;;;;;;;;;;;17.20;99.90;;;;;;4999369;28;20025;-80
2023/07/14 01:14:41;;;;;;;;;;;17.20;99.90;;;;;;5022587;28;19924;-80
2023/07/14 01:17:07;;;;;;;;;;;17.10;99.90;;;;;;5005372;28;19921;-80
2023/07/14 01:19:52;;;;;;;;;;;17.10;99.90;;;;;;4999554;28;19912;-81
2023/07/14 01:22:18;;;;;;;;;;;17.00;99.90;;;;;;5020158;28;19913;-81
2023/07/14 01:24:50;;;;;;;;;;;17.00;99.90;;;;;;5023125;28;20015;-80
2023/07/14 01:27:15;;;;;;;;;;;16.90;99.90;;;;;;5004726;28;20040;-81
2023/07/14 01:29:43;;;;;;;;;;;16.90;99.90;;;;;;4999961;28;19996;-80
2023/07/14 01:32:17;;;;;;;;;;;17.00;99.90;;;;;;5021997;28;19917;-81
2023/07/14 01:34:44;;;;;;;;;;;17.10;99.90;;;;;;5022716;28;19920;-80
2023/07/14 01:37:10;;;;;;;;;;;17.10;99.90;;;;;;5004257;28;20331;-81
2023/07/14 01:39:36;;;;;;;;;;;17.10;99.90;;;;;;5021733;28;19947;-80
2023/07/14 01:42:03;;;;;;;;;;;17.10;99.90;;;;;;5021105;28;20312;-81
2023/07/14 01:44:28;;;;;;;;;;;17.00;99.90;;;;;;5000369;28;19913;-81
2023/07/14 01:46:55;;;;;;;;;;;16.90;99.90;;;;;;5021225;28;19920;-80
2023/07/14 01:49:33;;;;;;;;;;;16.90;99.90;;;;;;5021313;28;19913;-81
2023/07/14 01:52:01;;;;;;;;;;;16.90;99.90;;;;;;5022453;28;19956;-80
2023/07/14 01:54:48;;;;;;;;;;;17.00;99.90;;;;;;5021957;28;19967;-80
2023/07/14 01:57:15;;;;;;;;;;;17.00;99.90;;;;;;5037278;28;20434;-80
2023/07/14 01:59:44;;;;;;;;;;;17.00;99.90;;;;;;5021206;28;19913;-80
2023/07/14 02:02:13;;;;;;;;;;;17.00;99.90;;;;;;5022471;28;19916;-80
2023/07/14 02:04:39;;;;;;;;;;;17.00;99.90;;;;;;5000165;28;19917;-80
2023/07/14 02:07:05;;;;;;;;;;;16.90;99.90;;;;;;5004782;28;19918;-80
2023/07/14 02:09:32;;;;;;;;;;;16.90;99.90;;;;;;5021354;28;19920;-80
2023/07/14 02:12:00;;;;;;;;;;;16.80;99.90;;;;;;5022247;28;19935;-80
2023/07/14 02:14:31;;;;;;;;;;;16.80;99.90;;;;;;5021479;28;19917;-79
2023/07/14 02:17:02;;;;;;;;;;;16.80;99.90;;;;;;5004627;28;19995;-80
2023/07/14 02:19:28;;;;;;;;;;;16.70;99.90;;;;;;5021634;28;20353;-80
2023/07/14 02:21:54;;;;;;;;;;;16.70;99.90;;;;;;4997471;28;19913;-80
2023/07/14 02:24:25;;;;;;;;;;;16.70;99.90;;;;;;5004185;28;19919;-80
2023/07/14 02:26:55;;;;;;;;;;;16.70;99.90;;;;;;5003930;28;20007;-80
2023/07/14 02:29:21;;;;;;;;;;;16.70;99.90;;;;;;4998656;28;19917;-80
2023/07/14 02:31:51;;;;;;;;;;;16.60;99.90;;;;;;4999433;28;19968;-80
2023/07/14 02:34:17;;;;;;;;;;;16.60;99.90;;;;;;5035511;28;19925;-80
2023/07/14 02:37:00;;;;;;;;;;;16.60;99.90;;;;;;5000564;28;19999;-80
2023/07/14 02:39:28;;;;;;;;;;;16.60;99.90;;;;;;4994647;28;19917;-80
2023/07/14 02:41:55;;;;;;;;;;;16.60;99.90;;;;;;4998757;28;22211;-80
2023/07/14 02:44:25;;;;;;;;;;;16.60;99.90;;;;;;5003063;28;19948;-80
2023/07/14 02:46:54;;;;;;;;;;;16.70;99.90;;;;;;4999855;28;19919;-80
2023/07/14 02:49:20;;;;;;;;;;;16.70;99.90;;;;;;5022441;28;19916;-80
2023/07/14 02:51:45;;;;;;;;;;;16.70;99.90;;;;;;5022088;28;19923;-80
2023/07/14 02:54:12;;;;;;;;;;;16.80;99.90;;;;;;4998643;28;19913;-80
2023/07/14 02:56:38;;;;;;;;;;;16.80;99.90;;;;;;4998124;28;19909;-80
2023/07/14 02:59:03;;;;;;;;;;;16.80;99.90;;;;;;4997826;28;19944;-80
2023/07/14 03:01:32;;;;;;;;;;;16.90;99.90;;;;;;5000300;28;20439;-80
2023/07/14 03:03:58;;;;;;;;;;;16.90;99.90;;;;;;5020852;28;19909;-80
2023/07/14 03:06:24;;;;;;;;;;;16.90;99.90;;;;;;4995416;28;19919;-80
2023/07/14 03:08:50;;;;;;;;;;;16.90;99.90;;;;;;5020521;28;19927;-80
2023/07/14 03:11:16;;;;;;;;;;;16.90;99.90;;;;;;5020327;28;20375;-80
2023/07/14 03:13:43;;;;;;;;;;;16.80;99.90;;;;;;4996910;28;19913;-80
2023/07/14 03:16:09;;;;;;;;;;;16.80;99.90;;;;;;5021511;28;19967;-80
2023/07/14 03:18:34;;;;;;;;;;;16.80;99.90;;;;;;4996845;28;20039;-79
2023/07/14 03:21:01;;;;;;;;;;;16.80;99.90;;;;;;5019944;28;19935;-81
2023/07/14 03:23:28;;;;;;;;;;;16.80;99.90;;;;;;4996816;28;20380;-80
2023/07/14 03:26:01;;;;;;;;;;;16.80;99.90;;;;;;5016868;28;19913;-80
2023/07/14 03:28:27;;;;;;;;;;;16.70;99.90;;;;;;5019599;28;19917;-80
2023/07/14 03:30:54;;;;;;;;;;;16.70;99.90;;;;;;5020735;28;20249;-80
2023/07/14 03:33:20;;;;;;;;;;;16.70;99.90;;;;;;5018718;28;19924;-81
2023/07/14 03:35:46;;;;;;;;;;;16.60;99.90;;;;;;5020620;28;20416;-80
2023/07/14 03:38:12;;;;;;;;;;;16.60;99.90;;;;;;4997330;28;20054;-80
2023/07/14 03:40:37;;;;;;;;;;;16.50;99.90;;;;;;5020429;28;19912;-80
2023/07/14 03:43:03;;;;;;;;;;;16.50;99.90;;;;;;5000354;28;19921;-80
2023/07/14 03:45:29;;;;;;;;;;;16.40;99.90;;;;;;5001898;28;19913;-80
2023/07/14 03:47:54;;;;;;;;;;;16.40;99.90;;;;;;5006756;28;19960;-80
2023/07/14 03:50:20;;;;;;;;;;;16.40;99.90;;;;;;4999525;28;19936;-81
2023/07/14 03:52:46;;;;;;;;;;;16.30;99.90;;;;;;5006257;28;19917;-80
2023/07/14 03:55:11;;;;;;;;;;;16.30;99.90;;;;;;4998992;28;19913;-80
2023/07/14 03:57:37;;;;;;;;;;;16.40;99.90;;;;;;5001583;28;19921;-80
2023/07/14 04:00:13;;;;;;;;;;;16.30;99.90;;;;;;5002269;28;19972;-80
2023/07/14 04:02:39;;;;;;;;;;;16.30;99.90;;;;;;5022017;28;21013;-80
2023/07/14 04:05:07;;;;;;;;;;;16.30;99.90;;;;;;5006252;28;20408;-80
2023/07/14 04:07:33;;;;;;;;;;;16.30;99.90;;;;;;4999446;28;19921;-81
2023/07/14 04:09:59;;;;;;;;;;;16.30;99.90;;;;;;5002124;28;19919;-81
2023/07/14 04:12:24;;;;;;;;;;;16.30;99.90;;;;;;5001306;28;19917;-80
2023/07/14 04:14:50;;;;;;;;;;;16.30;99.90;;;;;;5006313;28;19917;-80
2023/07/14 04:17:16;;;;;;;;;;;16.20;99.90;;;;;;5023545;28;20928;-80
2023/07/14 04:19:41;;;;;;;;;;;16.20;99.90;;;;;;5000471;28;19915;-80
2023/07/14 04:22:07;;;;;;;;;;;16.20;99.90;;;;;;5006107;28;19917;-80
2023/07/14 04:24:33;;;;;;;;;;;16.20;99.90;;;;;;5005868;28;19909;-80
2023/07/14 04:26:58;;;;;;;;;;;16.30;99.90;;;;;;5000508;28;19913;-80
2023/07/14 04:29:24;;;;;;;;;;;16.30;99.90;;;;;;5001515;28;19917;-80
2023/07/14 04:31:50;;;;;;;;;;;16.40;99.90;;;;;;5023667;28;19913;-80
2023/07/14 04:34:16;;;;;;;;;;;16.40;99.90;;;;;;5023269;28;19909;-80
2023/07/14 04:36:41;;;;;;;;;;;16.40;99.90;;;;;;5000485;28;19915;-80
2023/07/14 04:39:09;;;;;;;;;;;16.50;99.90;;;;;;5038913;28;20882;-80
2023/07/14 04:41:35;;;;;;;;;;;16.50;99.90;;;;;;5022396;28;20024;-80
2023/07/14 04:44:05;;;;;;;;;;;16.50;99.90;;;;;;5001990;28;19913;-81
2023/07/14 04:46:34;;;;;;;;;;;16.50;99.90;;;;;;5022941;28;19920;-80
2023/07/14 04:48:59;;;;;;;;;;;16.60;99.90;;;;;;5003958;28;20040;-80
2023/07/14 04:51:25;;;;;;;;;;;16.60;99.90;;;;;;5000363;28;19943;-80
2023/07/14 04:53:50;;;;;;;;;;;16.70;99.90;;;;;;5000125;28;19913;-79
2023/07/14 04:56:16;;;;;;;;;;;16.70;99.90;;;;;;5004518;28;19909;-79
2023/07/14 04:58:43;;;;;;;;;;;16.70;99.90;;;;;;5022835;28;20357;-80
2023/07/14 05:01:08;;;;;;;;;;;16.80;99.90;;;;;;5001467;28;19912;-80
2023/07/14 05:03:34;;;;;;;;;;;16.80;99.90;;;;;;5004718;28;19913;-79
2023/07/14 05:05:59;;;;;;;;;;;16.80;99.90;;;;;;5004667;28;19909;-79
2023/07/14 05:08:26;;;;;;;;;;;16.80;99.90;;;;;;5006023;28;19921;-80
2023/07/14 05:10:51;;;;;;;;;;;16.90;99.90;;;;;;5022613;28;20030;-80
2023/07/14 05:13:18;;;;;;;;;;;16.90;99.90;;;;;;5005458;28;20353;-80
2023/07/14 05:15:45;;;;;;;;;;;16.90;99.90;;;;;;5004847;28;19970;-80
2023/07/14 05:18:11;;;;;;;;;;;17.00;99.90;;;;;;5000935;28;19928;-79
2023/07/14 05:20:39;;;;;;;;;;;17.00;99.90;;;;;;5023436;28;19913;-80
2023/07/14 05:23:05;;;;;;;;;;;17.00;99.90;;;;;;5024141;28;19932;-81
2023/07/14 05:25:30;;;;;;;;;;;17.10;99.90;;;;;;5002893;28;19917;-80
2023/07/14 05:27:56;;;;;;;;;;;17.10;99.90;;;;;;5005713;28;19954;-80
2023/07/14 05:30:23;;;;;;;;;;;17.20;99.90;;;;;;5000027;28;19955;-80
2023/07/14 05:32:49;;;;;;;;;;;17.20;99.90;;;;;;5002233;28;20653;-80
2023/07/14 05:35:15;;;;;;;;;;;17.20;99.90;;;;;;5022027;28;19913;-80
2023/07/14 05:37:43;;;;;;;;;;;17.20;99.90;;;;;;5004448;28;19917;-80
2023/07/14 05:40:10;;;;;;;;;;;17.20;99.90;;;;;;5021085;28;19916;-80
2023/07/14 05:42:36;;;;;;;;;;;17.20;99.90;;;;;;5038387;28;20028;-80
2023/07/14 05:45:03;;;;;;;;;;;17.20;99.90;;;;;;5000519;28;19940;-80
2023/07/14 05:47:30;;;;;;;;;;;17.20;99.90;;;;;;5000563;28;20357;-81
2023/07/14 05:49:55;;;;;;;;;;;17.30;99.90;;;;;;5037818;28;19939;-81
2023/07/14 05:52:21;;;;;;;;;;;17.30;99.90;;;;;;4999020;28;19909;-80
2023/07/14 05:54:47;;;;;;;;;;;17.40;99.90;;;;;;5037531;28;20278;-81
2023/07/14 05:57:13;;;;;;;;;;;17.40;99.90;;;;;;5000142;28;19930;-79
2023/07/14 05:59:40;;;;;;;;;;;17.40;99.90;;;;;;5020085;28;19913;-80
2023/07/14 06:02:09;;;;;;;;;;;17.40;99.90;;;;;;5022651;28;19912;-80
2023/07/14 06:04:36;;;;;;;;;;;17.50;99.90;;;;;;5004244;28;19992;-79
2023/07/14 06:07:03;;;;;;;;;;;17.50;99.90;;;;;;5021749;28;20012;-80
2023/07/14 06:09:32;;;;;;;;;;;17.60;99.90;;;;;;4985462;28;19921;-80
2023/07/14 06:12:02;;;;;;;;;;;17.70;99.90;;;;;;5002823;28;19992;-79
2023/07/14 06:14:27;;;;;;;;;;;17.70;99.90;;;;;;5001601;28;19909;-80
2023/07/14 06:16:53;;;;;;;;;;;17.80;99.90;;;;;;4978866;28;19980;-80
2023/07/14 06:19:19;;;;;;;;;;;17.80;99.90;;;;;;4985504;28;20016;-80
2023/07/14 06:21:45;;;;;;;;;;;17.90;99.90;;;;;;4980315;28;20012;-81
2023/07/14 06:24:10;;;;;;;;;;;17.90;99.90;;;;;;4979521;28;19917;-80
2023/07/14 06:26:36;;;;;;;;;;;17.90;99.90;;;;;;5001486;28;20413;-80
2023/07/14 06:29:02;;;;;;;;;;;17.90;99.90;;;;;;5001345;28;19913;-79
2023/07/14 06:31:28;;;;;;;;;;;17.90;99.90;;;;;;4977673;28;19913;-79
2023/07/14 06:33:53;;;;;;;;;;;17.90;99.90;;;;;;5001466;28;19940;-80
2023/07/14 06:36:19;;;;;;;;;;;17.90;99.90;;;;;;4984159;28;20367;-79
2023/07/14 06:38:45;;;;;;;;;;;17.90;99.90;;;;;;4979376;28;19984;-80
2023/07/14 06:41:14;;;;;;;;;;;17.90;99.90;;;;;;4984858;28;20377;-80
2023/07/14 06:43:39;;;;;;;;;;;18.00;99.90;;;;;;4983763;28;19909;-79
2023/07/14 06:46:05;;;;;;;;;;;18.00;99.90;;;;;;4979041;28;22323;-79
2023/07/14 06:48:34;;;;;;;;;;;18.10;99.90;;;;;;4984203;28;19909;-80
2023/07/14 06:51:00;;;;;;;;;;;18.20;99.90;;;;;;5001650;28;20400;-79
2023/07/14 06:53:26;;;;;;;;;;;18.30;99.90;;;;;;4980807;28;19917;-80
2023/07/14 06:55:51;;;;;;;;;;;18.40;99.90;;;;;;5002079;28;19943;-80
2023/07/14 06:58:19;;;;;;;;;;;18.40;99.90;;;;;;5001258;28;19921;-80
2023/07/14 07:00:50;;;;;;;;;;;18.50;99.90;;;;;;5002206;28;19924;-81
2023/07/14 07:03:16;;;;;;;;;;;18.50;99.90;;;;;;4979986;28;19909;-81
2023/07/14 07:05:43;;;;;;;;;;;18.50;99.90;;;;;;4996372;28;19936;-80
2023/07/14 07:08:13;;;;;;;;;;;18.50;99.90;;;;;;4992500;28;19967;-80
2023/07/14 07:10:47;;;;;;;;;;;18.40;99.90;;;;;;5021275;28;20360;-80
2023/07/14 07:13:16;;;;;;;;;;;18.50;99.90;;;;;;5000271;28;19960;-79
2023/07/14 07:15:42;;;;;;;;;;;18.60;99.90;;;;;;4996721;28;21419;-79
2023/07/14 07:18:11;;;;;;;;;;;18.60;99.90;;;;;;5020827;28;20467;-80
2023/07/14 07:20:41;;;;;;;;;;;18.70;99.90;;;;;;5022795;28;19912;-79
2023/07/14 07:23:07;;;;;;;;;;;18.70;99.90;;;;;;5024486;28;20665;-79
2023/07/14 07:25:34;;;;;;;;;;;18.80;99.90;;;;;;5021519;28;20462;-79
2023/07/14 07:28:00;;;;;;;;;;;18.80;99.90;;;;;;5005932;28;19928;-79
2023/07/14 07:30:25;;;;;;;;;;;18.80;99.90;;;;;;5018624;28;19924;-79
2023/07/14 07:32:52;;;;;;;;;;;18.70;99.90;;;;;;5022817;28;19921;-80
2023/07/14 07:35:18;;;;;;;;;;;18.70;99.90;;;;;;5039009;28;19949;-79
2023/07/14 07:37:45;;;;;;;;;;;18.70;99.90;;;;;;5002306;28;20071;-79
2023/07/14 07:40:11;;;;;;;;;;;18.70;99.90;;;;;;5001849;28;19917;-82
2023/07/14 07:42:38;;;;;;;;;;;18.70;99.90;;;;;;5001959;28;19924;-80
2023/07/14 07:45:04;;;;;;;;;;;18.80;99.90;;;;;;4999465;28;19909;-81
2023/07/14 07:47:29;;;;;;;;;;;18.80;99.90;;;;;;5022645;28;19913;-81
2023/07/14 07:49:56;;;;;;;;;;;18.90;99.90;;;;;;5022950;28;20327;-81
2023/07/14 07:52:21;;;;;;;;;;;19.00;99.90;;;;;;5005633;28;19913;-81
2023/07/14 07:54:47;;;;;;;;;;;19.10;99.90;;;;;;5000787;28;20278;-81
2023/07/14 07:57:15;;;;;;;;;;;19.20;99.90;;;;;;5038160;28;19917;-81
2023/07/14 07:59:44;;;;;;;;;;;19.30;99.90;;;;;;5023735;28;20369;-81
2023/07/14 08:02:12;;;;;;;;;;;19.40;99.90;;;;;;5022818;28;20040;-81
2023/07/14 08:04:38;;;;;;;;;;;19.60;99.90;;;;;;5002246;28;19913;-81
2023/07/14 08:07:09;;;;;;;;;;;19.80;99.90;;;;;;5023470;28;19924;-80
2023/07/14 08:09:38;;;;;;;;;;;19.90;99.90;;;;;;4999678;28;19928;-79
2023/07/14 08:12:03;;;;;;;;;;;20.10;99.90;;;;;;5001835;28;19935;-79
2023/07/14 08:14:29;;;;;;;;;;;20.20;99.90;;;;;;4998641;28;20369;-80
2023/07/14 08:16:58;;;;;;;;;;;20.40;99.90;;;;;;5024187;28;19919;-79
2023/07/14 08:19:30;;;;;;;;;;;20.50;99.90;;;;;;5022870;28;19931;-80
2023/07/14 08:21:55;;;;;;;;;;;20.60;99.90;;;;;;5000942;28;19913;-79
2023/07/14 08:24:24;;;;;;;;;;;20.60;99.90;;;;;;5000654;28;19966;-80
2023/07/14 08:26:51;;;;;;;;;;;20.70;99.90;;;;;;5022543;28;19912;-79
2023/07/14 08:29:18;;;;;;;;;;;20.80;99.90;;;;;;5000649;28;20306;-79
2023/07/14 08:31:43;;;;;;;;;;;21.10;99.90;;;;;;4998872;28;20353;-79
2023/07/14 08:34:09;;;;;;;;;;;21.30;99.90;;;;;;5001398;28;20044;-81
2023/07/14 08:36:36;;;;;;;;;;;21.50;99.90;;;;;;5006151;28;19913;-81
2023/07/14 08:39:03;;;;;;;;;;;21.50;99.90;;;;;;5022854;28;20356;-81
2023/07/14 08:41:46;;;;;;;;;;;21.50;99.90;;;;;;5017125;28;19974;-81
2023/07/14 08:44:17;;;;;;;;;;;21.50;99.90;;;;;;5000079;28;20007;-82
2023/07/14 08:46:49;;;;;;;;;;;21.60;99.90;;;;;;5001742;28;19924;-80
2023/07/14 08:49:26;;;;;;;;;;;21.60;99.90;;;;;;5005322;28;19920;-81
2023/07/14 08:52:15;;;;;;;;;;;21.80;99.90;;;;;;5005523;28;19913;-81
2023/07/14 08:54:49;;;;;;;;;;;21.80;99.90;;;;;;4998685;28;19923;-82
2023/07/14 08:57:19;;;;;;;;;;;21.80;99.90;;;;;;5022323;28;20062;-82
2023/07/14 08:59:54;;;;;;;;;;;21.90;99.90;;;;;;5037132;28;19913;-81
2023/07/14 09:02:36;;;;;;;;;;;22.10;99.90;;;;;;5022021;28;19913;-81
2023/07/14 09:05:22;;;;;;;;;;;22.10;99.90;;;;;;5022942;28;19995;-81
2023/07/14 09:07:57;;;;;;;;;;;22.30;99.90;;;;;;5020075;28;20055;-80
2023/07/14 09:10:35;;;;;;;;;;;22.60;99.90;;;;;;5017642;28;20048;-81
2023/07/14 09:13:06;;;;;;;;;;;22.80;99.90;;;;;;4999503;28;20533;-82
2023/07/14 09:15:40;;;;;;;;;;;22.90;99.90;;;;;;5020843;28;20495;-80
2023/07/14 09:18:25;;;;;;;;;;;22.90;99.90;;;;;;5005147;28;19925;-82
2023/07/14 09:21:17;;;;;;;;;;;23.00;99.90;;;;;;5020096;28;19936;-81
2023/07/14 09:24:11;;;;;;;;;;;23.10;99.90;;;;;;5019313;28;19917;-81
2023/07/14 09:26:45;;;;;;;;;;;23.20;99.90;;;;;;4998131;28;20447;-81
2023/07/14 09:29:34;;;;;;;;;;;23.20;99.90;;;;;;5021959;28;19913;-83
2023/07/14 09:32:05;;;;;;;;;;;23.10;99.90;;;;;;4997524;28;19913;-84
2023/07/14 09:34:42;;;;;;;;;;;23.20;99.90;;;;;;5020621;28;20305;-82
2023/07/14 09:37:15;;;;;;;;;;;23.30;99.90;;;;;;4998547;28;19913;-82
2023/07/14 09:39:59;;;;;;;;;;;23.50;99.90;;;;;;4997339;28;20059;-81
2023/07/14 09:42:45;;;;;;;;;;;23.80;99.90;;;;;;5035213;28;19912;-81
2023/07/14 09:45:19;;;;;;;;;;;24.20;99.90;;;;;;5019072;28;19920;-81
2023/07/14 09:48:18;;;;;;;;;;;24.10;99.90;;;;;;5021561;28;20003;-82
2023/07/14 09:51:02;;;;;;;;;;;24.10;99.90;;;;;;5012913;28;19921;-81
2023/07/14 09:53:42;;;;;;;;;;;24.30;99.90;;;;;;5020673;28;19917;-81
2023/07/14 09:56:29;;;;;;;;;;;24.30;99.90;;;;;;5018824;28;19921;-82
2023/07/14 09:59:08;;;;;;;;;;;24.50;99.90;;;;;;5013549;28;19925;-82
2023/07/14 10:01:51;;;;;;;;;;;24.90;99.90;;;;;;5017865;28;19909;-83
2023/07/14 10:04:25;;;;;;;;;;;24.80;99.90;;;;;;5016244;28;22421;-84
2023/07/14 10:06:54;;;;;;;;;;;24.70;99.90;;;;;;5033513;28;19913;-85
2023/07/14 10:09:23;;;;;;;;;;;24.80;99.90;;;;;;5018992;28;19921;-85
2023/07/14 10:11:49;;;;;;;;;;;25.00;99.90;;;;;;5003503;28;19999;-85
2023/07/14 10:14:49;;;;;;;;;;;25.20;99.90;;;;;;5018213;28;20361;-84
2023/07/14 10:17:23;;;;;;;;;;;25.50;99.90;;;;;;5017312;28;19917;-84
2023/07/14 10:20:00;;;;;;;;;;;25.70;99.90;;;;;;4991566;28;19913;-84
2023/07/14 10:22:37;;;;;;;;;;;25.80;99.90;;;;;;5032693;28;19917;-83
2023/07/14 10:25:21;;;;;;;;;;;25.70;99.90;;;;;;4997092;28;19952;-82
2023/07/14 10:27:55;;;;;;;;;;;25.60;99.90;;;;;;5019208;28;19917;-81
2023/07/14 10:30:36;;;;;;;;;;;25.50;99.90;;;;;;5034298;28;19967;-82
2023/07/14 10:33:10;;;;;;;;;;;25.40;99.90;;;;;;5019594;28;20309;-82
2023/07/14 10:35:38;;;;;;;;;;;25.40;99.90;;;;;;4991838;28;20313;-80
2023/07/14 10:38:26;;;;;;;;;;;25.50;99.90;;;;;;5017040;28;20403;-82
2023/07/14 10:41:05;;;;;;;;;;;25.60;99.90;;;;;;5034726;28;20331;-81
2023/07/14 10:43:53;;;;;;;;;;;25.50;99.90;;;;;;5018548;28;19963;-79
2023/07/14 10:46:22;;;;;;;;;;;25.20;99.90;;;;;;4996904;28;19913;-80
2023/07/14 10:49:20;;;;;;;;;;;25.20;99.90;;;;;;5011160;28;19959;-79
2023/07/14 10:51:51;;;;;;;;;;;25.20;99.90;;;;;;5002388;28;20471;-80
2023/07/14 10:54:23;;;;;;;;;;;25.10;99.90;;;;;;5022272;28;19944;-78
2023/07/14 10:57:05;;;;;;;;;;;25.00;99.90;;;;;;5025599;28;19924;-79
2023/07/14 10:59:40;;;;;;;;;;;25.00;99.90;;;;;;5039175;28;19979;-79
2023/07/14 11:02:22;;;;;;;;;;;24.80;99.90;;;;;;5024090;28;19909;-79
2023/07/14 11:05:01;;;;;;;;;;;24.70;99.90;;;;;;5019488;28;20402;-80
2023/07/14 11:07:33;;;;;;;;;;;24.60;99.90;;;;;;5011107;28;19909;-80
2023/07/14 11:10:02;;;;;;;;;;;24.50;99.90;;;;;;5020496;28;20031;-80
2023/07/14 11:12:39;;;;;;;;;;;24.30;99.90;;;;;;5022144;28;20304;-80
2023/07/14 11:15:31;;;;;;;;;;;24.40;99.90;;;;;;5024224;28;19944;-81
2023/07/14 11:18:15;;;;;;;;;;;24.60;99.90;;;;;;5003886;28;19932;-81
2023/07/14 11:20:52;;;;;;;;;;;24.60;99.90;;;;;;5021632;28;20396;-81
2023/07/14 11:23:56;;;;;;;;;;;24.70;99.90;;;;;;5002706;28;19917;-80
2023/07/14 11:26:30;;;;;;;;;;;24.60;99.90;;;;;;5011984;28;20301;-79
2023/07/14 11:29:04;;;;;;;;;;;24.60;99.90;;;;;;5026823;28;20320;-80
2023/07/14 11:31:36;;;;;;;;;;;24.60;99.90;;;;;;5039669;28;19936;-80
2023/07/14 11:34:22;;;;;;;;;;;24.60;99.90;;;;;;5025575;28;19913;-80
2023/07/14 11:36:57;;;;;;;;;;;24.60;99.90;;;;;;5039076;28;19924;-80
2023/07/14 11:39:45;;;;;;;;;;;24.60;99.90;;;;;;5037373;28;19927;-80
2023/07/14 11:42:34;;;;;;;;;;;24.70;99.90;;;;;;5038800;28;20417;-79
2023/07/14 11:45:17;;;;;;;;;;;24.80;99.90;;;;;;5023027;28;19917;-79
2023/07/14 11:47:51;;;;;;;;;;;24.90;99.90;;;;;;5001825;28;20432;-79
2023/07/14 11:50:32;;;;;;;;;;;25.50;99.90;;;;;;5002333;28;19917;-78
2023/07/14 11:53:10;;;;;;;;;;;26.20;99.90;;;;;;5022818;28;20289;-79
2023/07/14 11:55:46;;;;;;;;;;;26.20;99.90;;;;;;5026975;28;19909;-78
2023/07/14 11:58:18;;;;;;;;;;;25.90;99.90;;;;;;5026334;28;19921;-78
2023/07/14 12:01:12;;;;;;;;;;;25.50;99.90;;;;;;5035093;28;19920;-78
2023/07/14 12:03:56;;;;;;;;;;;25.20;99.90;;;;;;5045395;28;19923;-78
2023/07/14 12:06:42;;;;;;;;;;;24.90;99.90;;;;;;5014986;28;19916;-79
2023/07/14 12:09:13;;;;;;;;;;;24.70;99.90;;;;;;5051963;28;19990;-79
2023/07/14 12:12:05;;;;;;;;;;;24.80;99.90;;;;;;5040107;28;20357;-79
2023/07/14 12:14:41;;;;;;;;;;;25.00;99.90;;;;;;5019702;28;19913;-79
2023/07/14 12:17:28;;;;;;;;;;;25.40;99.90;;;;;;5039724;28;19924;-78
2023/07/14 12:20:09;;;;;;;;;;;25.90;99.90;;;;;;5022492;28;22273;-79
2023/07/14 12:22:42;;;;;;;;;;;26.60;99.90;;;;;;5023347;28;20372;-79
2023/07/14 12:25:17;;;;;;;;;;;27.50;99.90;;;;;;5038833;28;20376;-78
2023/07/14 12:27:53;;;;;;;;;;;28.00;99.90;;;;;;5022558;28;19984;-79
2023/07/14 12:30:31;;;;;;;;;;;28.30;99.90;;;;;;5022397;28;19943;-79
2023/07/14 12:33:04;;;;;;;;;;;28.60;99.90;;;;;;5038922;28;19999;-80
2023/07/14 12:35:34;;;;;;;;;;;28.70;99.90;;;;;;4995844;28;20392;-80
2023/07/14 12:38:12;;;;;;;;;;;28.50;99.90;;;;;;5023521;28;19921;-80
2023/07/14 12:40:57;;;;;;;;;;;28.40;99.90;;;;;;5021721;28;19928;-83
2023/07/14 12:43:39;;;;;;;;;;;28.50;99.90;;;;;;5020168;28;19915;-82
2023/07/14 12:46:24;;;;;;;;;;;28.80;99.90;;;;;;5002174;28;19909;-80
2023/07/14 12:48:59;;;;;;;;;;;29.10;99.90;;;;;;5037629;28;19913;-79
2023/07/14 12:51:43;;;;;;;;;;;29.10;99.90;;;;;;5019912;28;19909;-80
2023/07/14 12:54:25;;;;;;;;;;;28.90;99.90;;;;;;5016580;28;19921;-80
2023/07/14 12:57:00;;;;;;;;;;;28.90;99.90;;;;;;5022129;28;19912;-79
2023/07/14 12:59:32;;;;;;;;;;;29.30;99.90;;;;;;5021747;28;19917;-80
2023/07/14 13:02:01;;;;;;;;;;;30.10;99.90;;;;;;5021467;28;19913;-80
2023/07/14 13:04:36;;;;;;;;;;;30.70;99.90;;;;;;5018904;28;19924;-80
2023/07/14 13:07:23;;;;;;;;;;;30.60;99.30;;;;;;5000160;28;20002;-79
2023/07/14 13:10:02;;;;;;;;;;;30.60;99.40;;;;;;5021766;28;19960;-79
2023/07/14 13:12:47;;;;;;;;;;;30.30;99.00;;;;;;4998968;28;19920;-79
2023/07/14 13:15:19;;;;;;;;;;;30.00;99.40;;;;;;5021845;28;19996;-79
2023/07/14 13:18:08;;;;;;;;;;;29.80;99.60;;;;;;4998486;28;20407;-79
2023/07/14 13:21:06;;;;;;;;;;;29.40;99.70;;;;;;5038372;28;19919;-79
2023/07/14 13:24:01;;;;;;;;;;;28.90;99.70;;;;;;4999592;28;19964;-80
2023/07/14 13:26:32;;;;;;;;;;;28.50;99.90;;;;;;5033106;28;20348;-80
2023/07/14 13:29:13;;;;;;;;;;;28.20;99.90;;;;;;5036470;28;19913;-80
2023/07/14 13:31:45;;;;;;;;;;;28.10;99.90;;;;;;5021224;28;19948;-80
2023/07/14 13:34:29;;;;;;;;;;;28.20;99.90;;;;;;5036058;28;20539;-80
2023/07/14 13:37:02;;;;;;;;;;;28.70;99.90;;;;;;5020013;28;19913;-81
2023/07/14 13:39:40;;;;;;;;;;;29.50;99.60;;;;;;4997044;28;20377;-81
2023/07/14 13:42:26;;;;;;;;;;;29.40;98.80;;;;;;5021884;28;19913;-80
2023/07/14 13:45:01;;;;;;;;;;;29.20;98.80;;;;;;5020514;28;20034;-80
2023/07/14 13:47:31;;;;;;;;;;;29.10;99.10;;;;;;5016774;28;19921;-80
2023/07/14 13:50:00;;;;;;;;;;;29.20;99.20;;;;;;4997650;28;19949;-80
2023/07/14 13:52:49;;;;;;;;;;;29.40;99.40;;;;;;5016874;28;20369;-79
2023/07/14 13:55:25;;;;;;;;;;;29.60;99.20;;;;;;5017297;28;19916;-79
2023/07/14 13:57:51;;;;;;;;;;;29.70;99.00;;;;;;5020324;28;19971;-79
2023/07/14 14:00:26;;;;;;;;;;;29.90;99.40;;;;;;5033582;28;19916;-79
2023/07/14 14:03:09;;;;;;;;;;;29.90;99.70;;;;;;4997128;28;19913;-80
2023/07/14 14:05:55;;;;;;;;;;;30.00;99.80;;;;;;5007484;28;19921;-80
2023/07/14 14:08:32;;;;;;;;;;;29.80;99.70;;;;;;5019074;28;19920;-79
2023/07/14 14:11:01;;;;;;;;;;;29.70;99.60;;;;;;4995705;28;19986;-80
2023/07/14 14:13:30;;;;;;;;;;;29.50;99.70;;;;;;5001995;28;19924;-80
2023/07/14 14:16:11;;;;;;;;;;;29.40;99.60;;;;;;5020666;28;19943;-79
2023/07/14 14:18:42;;;;;;;;;;;29.30;99.70;;;;;;5034410;28;19987;-79
2023/07/14 14:21:14;;;;;;;;;;;29.10;99.70;;;;;;5035513;28;19924;-80
2023/07/14 14:23:42;;;;;;;;;;;29.20;99.80;;;;;;5034671;28;19919;-80
2023/07/14 14:26:15;;;;;;;;;;;29.40;99.40;;;;;;5000413;28;19923;-80
2023/07/14 14:28:41;;;;;;;;;;;29.40;99.40;;;;;;5013042;28;19917;-80
2023/07/14 14:31:11;;;;;;;;;;;29.20;99.40;;;;;;5001028;28;20817;-80
2023/07/14 14:33:49;;;;;;;;;;;29.00;99.40;;;;;;4996144;28;19981;-78
2023/07/14 14:36:27;;;;;;;;;;;28.70;99.40;;;;;;5018628;28;19917;-80
2023/07/14 14:38:56;;;;;;;;;;;28.40;99.70;;;;;;5002735;28;19928;-81
2023/07/14 14:41:29;;;;;;;;;;;28.30;99.80;;;;;;5015231;28;19920;-79